PDT,Max TemperatureF,Mean TemperatureF,Min TemperatureF,Max Dew PointF,MeanDew PointF,Min DewpointF,Max Humidity, Mean Humidity, Min Humidity, Max Sea Level PressureIn, Mean Sea Level PressureIn, Min Sea Level PressureIn, Max VisibilityMiles, Mean VisibilityMiles, Min VisibilityMiles, Max Wind SpeedMPH, Mean Wind SpeedMPH, Max Gust SpeedMPH,PrecipitationIn, CloudCover, Events, WindDirDegrees
2010-10-1,69,62,55,58,55,53,93,77,61,30.09,30.02,29.81,10,10,6,0,4,0,0.00,4,,175
2010-10-2,71,62,53,56,52,49,89,67,44,30.09,30.02,29.92,10,10,10,13,4,18,0.00,4,,356
2010-10-3,65,60,54,52,50,45,89,73,56,30.04,29.99,29.95,10,10,10,10,3,0,0.00,6,,285
2010-10-4,62,53,44,46,45,42,92,72,51,30.28,30.16,30.05,10,10,10,9,2,17,0.00,6,,294
2010-10-5,70,57,44,46,44,41,86,62,37,30.37,30.29,30.16,10,10,10,21,8,25,0.00,3,,4
2010-10-6,81,63,45,51,46,42,86,59,32,30.14,29.98,29.84,10,10,10,12,4,14,0.00,1,,308
2010-10-7,65,59,53,54,50,47,83,72,60,30.13,30.05,29.93,10,10,10,16,8,21,T,6,,186
2010-10-8,73,65,56,53,51,48,93,69,44,30.15,30.10,30.04,10,10,10,13,5,16,0.02,6,Rain,174
2010-10-9,68,63,57,61,57,54,93,85,76,30.19,30.15,30.11,10,7,2,20,10,26,0.40,8,Rain,161
2010-10-10,65,56,46,61,54,45,93,83,72,30.37,30.25,30.16,10,7,2,15,4,21,0.83,7,Rain,254
2010-10-11,63,52,41,45,42,38,96,68,39,30.48,30.43,30.38,10,8,1,14,5,18,0.00,0,Fog,16
2010-10-12,67,53,39,49,44,37,93,73,52,30.38,30.29,30.19,10,9,2,9,2,18,0.00,0,,347
2010-10-13,72,57,41,52,46,39,96,72,47,30.17,30.10,30.05,10,10,10,7,1,18,0.00,0,Fog,160
2010-10-14,72,56,40,52,45,39,96,67,37,30.26,30.13,30.10,10,5,0,29,3,,T,3,Fog-Rain,202
2010-10-15,61,50,39,48,41,34,100,68,36,30.34,30.25,30.13,10,9,1,21,6,24,0.00,1,,350
2010-10-16,62,50,37,43,40,36,92,69,46,30.17,30.13,30.10,10,10,10,8,2,12,0.00,0,,34
2010-10-17,64,50,36,44,40,35,92,70,48,30.20,30.16,30.12,10,10,8,13,2,18,0.00,0,Fog,360
2010-10-18,65,50,35,43,40,34,100,70,40,30.28,30.23,30.18,10,10,9,12,2,14,0.00,0,Fog,358
2010-10-19,72,55,37,48,43,39,100,69,38,30.18,30.06,29.94,10,10,8,12,2,15,0.00,0,,7
2010-10-20,72,56,39,51,44,39,100,68,35,29.94,29.89,29.84,10,10,4,6,2,9,0.00,0,,178
2010-10-21,63,52,41,53,46,41,100,80,60,29.96,29.90,29.87,10,6,0,16,6,18,T,4,Fog,158
2010-10-22,64,57,50,52,48,42,96,72,48,29.98,29.91,29.81,10,10,10,13,6,17,0.01,6,Rain,172
2010-10-23,65,58,50,52,48,46,96,74,52,29.81,29.69,29.49,10,8,3,25,11,35,0.86,7,Rain,161
2010-10-24,57,52,47,53,48,43,93,82,71,29.71,29.50,29.41,10,9,5,26,14,41,0.69,6,Rain-Thunderstorm,192
2010-10-25,55,50,45,46,44,41,93,82,71,29.94,29.87,29.73,10,10,5,24,13,32,0.67,6,Rain,181
2010-10-26,55,49,43,45,42,40,86,76,66,30.19,30.09,29.96,10,10,5,23,12,26,0.17,7,Rain,180
2010-10-27,55,45,35,47,40,34,100,80,59,30.19,30.03,29.86,10,7,0,10,2,22,T,5,Fog-Rain,67
2010-10-28,56,53,49,52,50,46,93,90,86,30.02,29.96,29.84,10,8,3,9,2,12,0.39,8,Rain,116
2010-10-29,61,51,41,52,48,41,96,83,69,30.07,30.00,29.88,10,4,0,10,2,26,T,5,Fog,37
2010-10-30,56,49,42,51,47,39,100,93,86,29.88,29.83,29.79,10,6,0,15,5,29,0.91,7,Fog-Rain,158
2010-10-31,59,51,42,52,47,41,100,81,62,30.09,30.01,29.84,10,6,0,12,6,15,0.27,5,Fog-Rain,167